createdAt,value
2023-02-16T00:00:50.449Z,10.50
2023-02-16T00:03:23.939Z,9.93
2023-02-16T00:05:53.437Z,7.83
2023-02-16T00:08:22.400Z,10.07
2023-02-16T00:11:19.191Z,8.87
2023-02-16T00:13:53.257Z,8.87
2023-02-16T00:16:26.060Z,8.30
2023-02-16T00:18:56.489Z,10.50
2023-02-16T00:21:26.653Z,9.33
2023-02-16T00:23:55.692Z,9.00
2023-02-16T00:26:30.743Z,9.20
2023-02-16T00:29:00.803Z,8.23
2023-02-16T00:31:32.943Z,8.60
2023-02-16T00:34:26.316Z,8.97
2023-02-16T00:36:55.736Z,9.83
2023-02-16T00:39:26.789Z,8.37
2023-02-16T00:42:02.180Z,8.60
2023-02-16T00:44:39.335Z,7.90
2023-02-16T00:47:21.575Z,8.10
2023-02-16T00:49:53.437Z,9.00
2023-02-16T00:52:35.123Z,9.73
2023-02-16T00:55:08.123Z,9.63
2023-02-16T00:57:44.004Z,9.70
2023-02-16T01:00:22.133Z,10.00
2023-02-16T01:02:54.358Z,8.60
2023-02-16T01:05:24.414Z,8.80
2023-02-16T01:08:11.321Z,8.50
2023-02-16T01:10:59.146Z,8.90
2023-02-16T01:13:32.392Z,8.53
2023-02-16T01:16:03.545Z,8.40
2023-02-16T01:18:34.292Z,8.53
2023-02-16T01:21:04.540Z,8.20
2023-02-16T01:23:34.013Z,9.77
2023-02-16T01:26:04.060Z,8.40
2023-02-16T01:28:38.056Z,8.30
2023-02-16T01:31:08.432Z,8.70
2023-02-16T01:33:38.788Z,8.47
2023-02-16T01:36:26.061Z,8.77
2023-02-16T01:38:56.487Z,8.77
2023-02-16T01:41:45.351Z,8.80
2023-02-16T01:44:23.333Z,8.67
2023-02-16T01:46:57.828Z,8.70
2023-02-16T01:49:26.876Z,8.27
2023-02-16T01:52:07.204Z,8.43
2023-02-16T01:54:46.101Z,8.70
2023-02-16T01:57:33.079Z,9.00
2023-02-16T02:00:27.637Z,9.20
2023-02-16T02:03:20.604Z,8.60
2023-02-16T02:05:51.282Z,8.40
2023-02-16T02:08:35.102Z,8.50
2023-02-16T02:11:11.575Z,7.63
2023-02-16T02:13:47.518Z,8.60
2023-02-16T02:16:22.559Z,7.87
2023-02-16T02:18:52.853Z,8.40
2023-02-16T02:22:18.304Z,9.07
2023-02-16T02:25:58.080Z,8.40
2023-02-16T02:28:36.917Z,7.80
2023-02-16T02:31:16.663Z,8.60
2023-02-16T02:34:05.021Z,7.23
2023-02-16T02:36:43.906Z,7.00
2023-02-16T02:39:31.604Z,8.33
2023-02-16T02:42:11.371Z,9.30
2023-02-16T02:44:48.539Z,7.70
2023-02-16T02:47:18.946Z,8.47
2023-02-16T02:49:54.765Z,8.40
2023-02-16T02:52:25.215Z,7.90
2023-02-16T02:55:12.476Z,6.80
2023-02-16T02:58:05.852Z,8.70
2023-02-16T03:00:45.017Z,8.37
2023-02-16T03:03:25.809Z,8.17
2023-02-16T03:06:10.150Z,8.40
2023-02-16T03:08:45.834Z,8.00
2023-02-16T03:11:48.570Z,8.07
2023-02-16T03:14:24.650Z,7.47
2023-02-16T03:17:17.511Z,7.47
2023-02-16T03:20:10.344Z,8.67
2023-02-16T03:22:58.326Z,7.90
2023-02-16T03:25:50.962Z,8.37
2023-02-16T03:28:40.952Z,7.33
2023-02-16T03:31:18.174Z,9.43
2023-02-16T03:33:55.245Z,9.60
2023-02-16T03:36:26.761Z,9.87
2023-02-16T03:38:58.987Z,8.50
2023-02-16T03:41:33.951Z,8.80
2023-02-16T03:44:04.255Z,8.70
2023-02-16T03:46:33.422Z,8.60
2023-02-16T03:49:05.142Z,8.63
2023-02-16T03:51:35.470Z,9.97
2023-02-16T03:54:05.758Z,8.53
2023-02-16T03:56:35.817Z,9.40
2023-02-16T03:59:06.681Z,9.27
2023-02-16T04:01:36.268Z,9.03
2023-02-16T04:04:07.779Z,8.53
2023-02-16T04:06:38.915Z,9.00
2023-02-16T04:09:08.667Z,9.20
2023-02-16T04:11:55.111Z,8.60
2023-02-16T04:14:25.160Z,9.70
2023-02-16T04:16:56.680Z,9.73
2023-02-16T04:19:27.538Z,9.50
2023-02-16T04:21:57.581Z,9.90
2023-02-16T04:24:27.600Z,10.43
2023-02-16T04:26:58.622Z,9.00
2023-02-16T04:29:29.966Z,10.07
2023-02-16T04:32:00.256Z,8.43
2023-02-16T04:34:31.634Z,9.93
2023-02-16T04:37:01.822Z,9.10
2023-02-16T04:39:30.638Z,9.50
2023-02-16T04:42:00.651Z,9.07
2023-02-16T04:44:30.604Z,9.40
2023-02-16T04:47:00.728Z,9.43
2023-02-16T04:49:32.587Z,9.50
2023-02-16T04:52:04.741Z,9.13
2023-02-16T04:54:35.833Z,10.60
2023-02-16T04:57:06.332Z,10.70
2023-02-16T04:59:36.883Z,9.70
2023-02-16T05:02:07.635Z,9.47
2023-02-16T05:04:38.814Z,9.50
2023-02-16T05:07:09.741Z,9.63
2023-02-16T05:09:39.986Z,9.00
2023-02-16T05:12:27.076Z,8.90
2023-02-16T05:14:57.140Z,8.77
2023-02-16T05:17:29.239Z,8.63
2023-02-16T05:20:02.344Z,8.27
2023-02-16T05:22:34.443Z,9.50
2023-02-16T05:25:06.153Z,9.63
2023-02-16T05:27:36.314Z,9.50
2023-02-16T05:30:06.466Z,9.27
2023-02-16T05:32:35.944Z,8.53
2023-02-16T05:35:07.340Z,10.43
2023-02-16T05:37:36.726Z,8.77
2023-02-16T05:40:07.829Z,12.10
2023-02-16T05:42:36.242Z,9.70
2023-02-16T05:45:06.544Z,9.80
2023-02-16T05:47:35.435Z,9.80
2023-02-16T05:50:08.599Z,9.20
2023-02-16T05:52:38.573Z,9.23
2023-02-16T05:55:09.706Z,9.37
2023-02-16T05:57:39.737Z,9.17
2023-02-16T06:00:11.617Z,9.30
2023-02-16T06:02:41.055Z,8.40
2023-02-16T06:05:12.315Z,8.70
2023-02-16T06:07:42.123Z,9.70
2023-02-16T06:10:13.834Z,9.40
2023-02-16T06:12:44.810Z,9.93
2023-02-16T06:15:14.952Z,9.33
2023-02-16T06:17:45.596Z,9.00
2023-02-16T06:20:17.066Z,9.00
2023-02-16T06:22:45.979Z,10.40
2023-02-16T06:25:16.585Z,10.50
2023-02-16T06:27:46.454Z,11.17
2023-02-16T06:30:17.171Z,9.73
2023-02-16T06:32:47.519Z,9.90
2023-02-16T06:35:19.087Z,9.07
2023-02-16T06:37:48.175Z,9.97
2023-02-16T06:40:19.818Z,10.63
2023-02-16T06:42:49.837Z,10.83
2023-02-16T06:45:20.038Z,9.37
2023-02-16T06:47:49.033Z,10.10
2023-02-16T06:50:20.562Z,9.93
2023-02-16T06:52:50.539Z,8.90
2023-02-16T06:55:20.902Z,9.40
2023-02-16T06:57:50.312Z,10.17
2023-02-16T07:00:21.959Z,8.90
2023-02-16T07:02:51.462Z,10.80
2023-02-16T07:05:22.829Z,10.57
2023-02-16T07:07:52.529Z,9.83
2023-02-16T07:10:22.489Z,10.37
2023-02-16T07:12:52.567Z,9.57
2023-02-16T07:15:23.076Z,10.77
2023-02-16T07:17:52.556Z,10.03
2023-02-16T07:20:24.591Z,10.77
2023-02-16T07:22:55.256Z,10.23
2023-02-16T07:25:26.477Z,10.90
2023-02-16T07:27:56.654Z,10.10
2023-02-16T07:30:26.505Z,10.67
2023-02-16T07:32:55.356Z,10.00
2023-02-16T07:35:26.215Z,11.20
2023-02-16T07:37:55.417Z,9.83
2023-02-16T07:40:24.830Z,11.33
2023-02-16T07:42:54.009Z,10.30
2023-02-16T07:45:23.200Z,9.97
2023-02-16T07:47:52.134Z,9.10
2023-02-16T07:50:22.087Z,8.83
2023-02-16T07:52:52.952Z,10.60
2023-02-16T07:55:22.329Z,10.80
2023-02-16T07:57:56.003Z,11.03
2023-02-16T08:00:26.176Z,10.30
2023-02-16T08:02:55.671Z,10.87
2023-02-16T08:05:26.448Z,11.80
2023-02-16T08:07:56.812Z,10.27
2023-02-16T08:10:26.862Z,10.30
2023-02-16T08:12:56.173Z,11.40
2023-02-16T08:15:25.136Z,11.00
2023-02-16T08:17:54.980Z,12.07
2023-02-16T08:20:43.250Z,12.40
2023-02-16T08:23:15.274Z,10.80
2023-02-16T08:25:46.503Z,11.67
2023-02-16T08:28:16.451Z,10.73
2023-02-16T08:30:46.760Z,12.33
2023-02-16T08:33:15.754Z,11.70
2023-02-16T08:35:45.832Z,13.40
2023-02-16T08:38:17.874Z,13.67
2023-02-16T08:40:51.968Z,13.07
2023-02-16T08:43:23.043Z,13.27
2023-02-16T08:45:54.194Z,11.87
2023-02-16T08:48:24.193Z,13.20
2023-02-16T08:50:54.435Z,12.80
2023-02-16T08:53:27.925Z,13.60
2023-02-16T08:55:57.615Z,13.67
2023-02-16T08:58:27.479Z,12.67
2023-02-16T09:00:57.929Z,14.43
2023-02-16T09:03:27.570Z,15.97
2023-02-16T09:06:01.915Z,15.40
2023-02-16T09:08:33.967Z,15.70
2023-02-16T09:11:04.950Z,15.37
2023-02-16T09:13:36.459Z,17.73
2023-02-16T09:16:07.885Z,16.00
2023-02-16T09:18:37.751Z,18.23
2023-02-16T09:22:00.382Z,17.00
2023-02-16T09:24:31.880Z,15.70
2023-02-16T09:27:02.328Z,15.67
2023-02-16T09:29:32.508Z,17.87
2023-02-16T09:32:04.171Z,17.20
2023-02-16T09:34:34.282Z,20.80
2023-02-16T09:37:04.354Z,18.67
2023-02-16T09:39:35.254Z,18.20
2023-02-16T09:42:30.464Z,19.30
2023-02-16T09:45:09.767Z,19.63
2023-02-16T09:47:43.590Z,19.70
2023-02-16T09:50:27.752Z,18.70
2023-02-16T09:53:15.137Z,20.67
2023-02-16T09:56:00.164Z,20.33
2023-02-16T09:58:39.542Z,18.47
2023-02-16T10:01:23.725Z,18.23
2023-02-16T10:04:12.562Z,21.50
2023-02-16T10:07:04.095Z,18.77
2023-02-16T10:09:36.791Z,19.00
2023-02-16T10:12:16.445Z,19.43
2023-02-16T10:14:54.112Z,19.30
2023-02-16T10:17:33.358Z,17.40
2023-02-16T10:20:13.330Z,16.70
2023-02-16T10:22:50.141Z,18.87
2023-02-16T10:25:26.386Z,19.13
2023-02-16T10:28:17.501Z,18.20
2023-02-16T10:30:56.073Z,17.33
2023-02-16T10:33:42.525Z,16.20
2023-02-16T10:36:26.026Z,16.60
2023-02-16T10:39:09.321Z,17.40
2023-02-16T10:41:45.675Z,17.17
2023-02-16T10:44:24.342Z,13.87
2023-02-16T10:47:02.766Z,14.53
2023-02-16T10:49:34.390Z,15.67
2023-02-16T10:52:05.235Z,16.17
2023-02-16T10:54:37.830Z,14.57
2023-02-16T10:57:21.181Z,14.57
2023-02-16T10:59:55.534Z,13.23
2023-02-16T11:02:28.958Z,14.20
2023-02-16T11:05:02.320Z,13.23
2023-02-16T11:07:33.997Z,10.83
2023-02-16T11:10:23.145Z,11.50
2023-02-16T11:12:58.228Z,11.00
2023-02-16T11:15:31.899Z,11.13
2023-02-16T11:18:06.472Z,11.80
2023-02-16T11:20:54.284Z,10.70
2023-02-16T11:23:26.940Z,10.20
2023-02-16T11:26:03.230Z,10.03
2023-02-16T11:28:37.726Z,11.40
2023-02-16T11:31:19.302Z,10.40
2023-02-16T11:34:06.236Z,10.70
2023-02-16T11:36:41.041Z,10.67
2023-02-16T11:39:22.571Z,9.10
2023-02-16T11:41:56.269Z,9.90
2023-02-16T11:44:34.370Z,9.93
2023-02-16T11:47:11.032Z,9.27
2023-02-16T11:49:43.832Z,9.57
2023-02-16T11:52:30.607Z,9.70
2023-02-16T11:55:02.713Z,9.80
2023-02-16T11:57:33.819Z,10.00
2023-02-16T12:00:17.029Z,9.20
2023-02-16T12:03:19.966Z,8.30
2023-02-16T12:06:27.924Z,9.10
2023-02-16T12:09:15.677Z,8.40
2023-02-16T12:12:01.519Z,9.10
2023-02-16T12:14:48.572Z,8.50
2023-02-16T12:17:43.503Z,8.93
2023-02-16T12:20:35.109Z,9.63
2023-02-16T12:23:26.258Z,10.53
2023-02-16T12:26:32.323Z,11.20
2023-02-16T12:29:20.728Z,9.47
2023-02-16T12:32:09.597Z,8.90
2023-02-16T12:34:57.758Z,9.20
2023-02-16T12:37:39.791Z,8.70
2023-02-16T12:40:25.009Z,7.90
2023-02-16T12:43:10.307Z,7.73
2023-02-16T12:45:46.122Z,7.40
2023-02-16T12:48:34.840Z,8.13
2023-02-16T12:51:11.767Z,6.40
2023-02-16T12:53:52.005Z,8.70
2023-02-16T12:56:29.039Z,7.63
2023-02-16T12:59:20.538Z,8.37
2023-02-16T13:01:57.735Z,8.10
2023-02-16T13:04:39.427Z,7.30
2023-02-16T13:07:19.856Z,5.97
2023-02-16T13:10:02.814Z,7.67
2023-02-16T13:12:41.208Z,7.57
2023-02-16T13:15:18.683Z,7.30
2023-02-16T13:17:54.548Z,7.87
2023-02-16T13:20:26.616Z,5.83
2023-02-16T13:23:38.711Z,8.53
2023-02-16T13:26:47.556Z,7.30
2023-02-16T13:29:47.757Z,6.80
2023-02-16T13:33:02.623Z,6.83
2023-02-16T13:36:05.317Z,6.83
2023-02-16T13:39:11.314Z,8.20
2023-02-16T13:42:13.119Z,8.40
2023-02-16T13:44:49.790Z,8.27
2023-02-16T13:47:27.979Z,8.00
2023-02-16T13:50:03.001Z,8.80
2023-02-16T13:52:38.527Z,7.70
2023-02-16T13:55:24.869Z,8.07
2023-02-16T13:58:32.615Z,8.20
2023-02-16T14:01:43.158Z,9.20
2023-02-16T14:05:10.762Z,8.87
2023-02-16T14:07:40.637Z,9.20
2023-02-16T14:10:15.680Z,8.53
2023-02-16T14:12:46.076Z,8.83
2023-02-16T14:15:23.830Z,10.13
2023-02-16T14:17:53.966Z,9.13
2023-02-16T14:20:31.331Z,9.30
2023-02-16T14:23:01.290Z,8.47
2023-02-16T14:25:42.157Z,8.53
2023-02-16T14:29:00.618Z,8.53
2023-02-16T14:31:41.432Z,8.93
2023-02-16T14:34:29.473Z,8.27
2023-02-16T14:37:29.231Z,8.77
2023-02-16T14:40:14.359Z,8.87
2023-02-16T14:42:54.118Z,8.80
2023-02-16T14:46:08.908Z,9.03
2023-02-16T14:49:26.552Z,9.80
2023-02-16T14:52:44.864Z,9.23
2023-02-16T14:55:45.133Z,9.43
2023-02-16T14:58:31.815Z,8.03
2023-02-16T15:01:12.307Z,9.13
2023-02-16T15:03:47.072Z,9.63
2023-02-16T15:06:33.778Z,10.37
2023-02-16T15:09:13.598Z,10.13
2023-02-16T15:12:08.795Z,9.80
2023-02-16T15:14:45.693Z,10.17
2023-02-16T15:17:32.971Z,10.20
2023-02-16T15:20:20.143Z,8.90
2023-02-16T15:22:52.593Z,9.40
2023-02-16T15:25:30.040Z,10.27
2023-02-16T15:28:05.035Z,9.23
2023-02-16T15:30:36.322Z,9.73
2023-02-16T15:33:09.528Z,8.93
2023-02-16T15:35:42.049Z,8.00
2023-02-16T15:38:24.979Z,8.97
2023-02-16T15:40:55.174Z,8.40
2023-02-16T15:43:32.988Z,9.60
2023-02-16T15:46:04.756Z,8.97
2023-02-16T15:48:35.174Z,8.43
2023-02-16T15:51:15.840Z,8.80
2023-02-16T15:53:53.217Z,9.57
2023-02-16T15:56:42.647Z,8.20
2023-02-16T15:59:35.507Z,9.00
2023-02-16T16:02:16.498Z,9.30
2023-02-16T16:04:50.588Z,8.20
2023-02-16T16:07:33.495Z,7.77
2023-02-16T16:10:04.156Z,7.50
2023-02-16T16:12:33.999Z,7.83
2023-02-16T16:15:04.437Z,8.40
2023-02-16T16:17:39.648Z,7.73
2023-02-16T16:20:31.093Z,7.33
2023-02-16T16:23:05.585Z,8.60
2023-02-16T16:25:44.815Z,8.73
2023-02-16T16:28:34.104Z,7.07
2023-02-16T16:31:11.778Z,7.77
2023-02-16T16:34:03.030Z,8.17
2023-02-16T16:36:35.544Z,7.23
2023-02-16T16:39:32.849Z,7.50
2023-02-16T16:42:20.443Z,7.57
2023-02-16T16:45:01.254Z,35.13
2023-02-16T16:47:35.250Z,8.77
2023-02-16T16:50:29.092Z,8.13
2023-02-16T16:52:58.840Z,8.20
2023-02-16T16:55:35.451Z,8.10
2023-02-16T16:58:09.688Z,7.20
2023-02-16T17:00:42.352Z,7.87
2023-02-16T17:03:17.669Z,8.00
2023-02-16T17:05:47.491Z,7.10
2023-02-16T17:08:15.946Z,12.37
2023-02-16T17:10:46.420Z,9.17
2023-02-16T17:13:22.020Z,7.80
2023-02-16T17:15:55.823Z,8.07
2023-02-16T17:18:25.093Z,7.50
2023-02-16T17:20:53.801Z,8.00
2023-02-16T17:23:24.649Z,7.17
2023-02-16T17:25:55.322Z,7.57
2023-02-16T17:28:25.414Z,7.87
2023-02-16T17:30:55.388Z,7.97
2023-02-16T17:33:24.639Z,7.20
2023-02-16T17:35:54.418Z,7.30
2023-02-16T17:38:26.282Z,7.43
2023-02-16T17:41:01.426Z,6.63
2023-02-16T17:43:30.944Z,10.40
2023-02-16T17:46:05.348Z,7.97
2023-02-16T17:48:34.498Z,7.33
2023-02-16T17:51:04.529Z,7.90
2023-02-16T17:53:34.586Z,7.50
2023-02-16T17:56:05.957Z,8.20
2023-02-16T17:58:36.145Z,7.33
2023-02-16T18:01:06.146Z,8.60
2023-02-16T18:03:37.148Z,7.40
2023-02-16T18:06:07.783Z,8.20
2023-02-16T18:08:37.877Z,9.00
2023-02-16T18:11:09.623Z,6.70
2023-02-16T18:13:39.527Z,8.50
2023-02-16T18:16:12.511Z,8.37
2023-02-16T18:18:42.312Z,8.57
2023-02-16T18:21:12.027Z,8.10
2023-02-16T18:23:41.789Z,8.77
2023-02-16T18:26:15.622Z,7.57
2023-02-16T18:28:45.681Z,7.77
2023-02-16T18:31:15.444Z,8.77
2023-02-16T18:33:45.076Z,8.00
2023-02-16T18:36:14.390Z,8.07
2023-02-16T18:38:43.926Z,8.13
2023-02-16T18:41:15.358Z,7.90
2023-02-16T18:43:45.279Z,8.17
2023-02-16T18:46:14.884Z,8.93
2023-02-16T18:48:44.432Z,8.20
2023-02-16T18:51:17.256Z,7.60
2023-02-16T18:53:46.998Z,10.07
2023-02-16T18:56:19.254Z,7.67
2023-02-16T18:58:49.490Z,9.10
2023-02-16T19:01:30.165Z,8.10
2023-02-16T19:04:01.078Z,10.37
2023-02-16T19:06:31.606Z,8.50
2023-02-16T19:09:00.523Z,10.00
2023-02-16T19:11:33.547Z,8.30
2023-02-16T19:14:04.574Z,7.77
2023-02-16T19:16:34.253Z,8.87
2023-02-16T19:19:03.803Z,8.60
2023-02-16T19:21:34.402Z,8.97
2023-02-16T19:24:03.597Z,8.20
2023-02-16T19:26:33.633Z,7.57
2023-02-16T19:29:03.853Z,8.10
2023-02-16T19:31:35.431Z,8.40
2023-02-16T19:34:06.270Z,8.10
2023-02-16T19:36:36.518Z,8.03
2023-02-16T19:39:06.264Z,7.97
2023-02-16T19:41:40.575Z,7.47
2023-02-16T19:44:13.928Z,8.10
2023-02-16T19:46:44.299Z,8.83
2023-02-16T19:49:15.407Z,8.10
2023-02-16T19:51:48.241Z,7.73
2023-02-16T19:54:17.810Z,7.37
2023-02-16T19:56:49.105Z,8.37
2023-02-16T19:59:19.385Z,9.90
2023-02-16T20:01:47.899Z,14.50
2023-02-16T20:04:17.920Z,9.20
2023-02-16T20:06:47.184Z,8.40
2023-02-16T20:09:17.743Z,8.40
2023-02-16T20:11:48.753Z,8.13
2023-02-16T20:14:17.606Z,8.80
2023-02-16T20:16:46.404Z,8.20
2023-02-16T20:19:17.566Z,7.57
2023-02-16T20:21:47.085Z,7.83
2023-02-16T20:24:17.190Z,8.53
2023-02-16T20:26:52.093Z,7.40
2023-02-16T20:29:21.297Z,7.47
2023-02-16T20:31:53.226Z,7.43
2023-02-16T20:34:23.964Z,7.57
2023-02-16T20:36:52.921Z,8.07
2023-02-16T20:39:22.467Z,8.10
2023-02-16T20:41:53.438Z,8.37
2023-02-16T20:44:23.964Z,9.10
2023-02-16T20:46:53.098Z,8.50
2023-02-16T20:49:23.159Z,8.83
2023-02-16T20:51:53.471Z,7.87
2023-02-16T20:54:22.011Z,8.30
2023-02-16T20:56:51.037Z,9.80
2023-02-16T20:59:21.954Z,9.27
2023-02-16T21:01:52.723Z,8.70
2023-02-16T21:04:23.267Z,9.23
2023-02-16T21:06:52.764Z,9.47
2023-02-16T21:09:22.303Z,9.37
2023-02-16T21:11:52.292Z,8.87
2023-02-16T21:14:23.396Z,9.10
2023-02-16T21:16:53.858Z,10.00
2023-02-16T21:19:23.756Z,9.60
2023-02-16T21:21:53.641Z,10.13
2023-02-16T21:24:23.163Z,8.50
2023-02-16T21:26:51.980Z,10.10
2023-02-16T21:29:22.834Z,9.90
2023-02-16T21:31:52.619Z,9.43
2023-02-16T21:34:22.041Z,10.00
2023-02-16T21:36:52.967Z,9.30
2023-02-16T21:39:43.777Z,9.27
2023-02-16T21:42:13.191Z,8.80
2023-02-16T21:44:45.727Z,9.70
2023-02-16T21:47:32.899Z,8.43
2023-02-16T21:50:03.521Z,9.30
2023-02-16T21:52:33.718Z,9.43
2023-02-16T21:55:20.532Z,9.07
2023-02-16T21:57:49.781Z,9.03
2023-02-16T22:00:21.224Z,10.03
2023-02-16T22:02:50.633Z,8.77
2023-02-16T22:05:20.361Z,8.23
2023-02-16T22:07:50.842Z,8.50
2023-02-16T22:10:20.301Z,8.43
2023-02-16T22:12:50.163Z,8.97
2023-02-16T22:15:20.541Z,8.80
2023-02-16T22:17:50.205Z,9.40
2023-02-16T22:20:20.105Z,8.57
2023-02-16T22:22:50.372Z,7.70
2023-02-16T22:25:20.345Z,8.63
2023-02-16T22:27:51.502Z,7.63
2023-02-16T22:30:24.074Z,8.13
2023-02-16T22:32:53.708Z,7.63
2023-02-16T22:35:22.704Z,7.50
2023-02-16T22:37:51.821Z,7.10
2023-02-16T22:40:22.198Z,7.03
2023-02-16T22:42:52.040Z,7.83
2023-02-16T22:45:26.905Z,7.17
2023-02-16T22:47:56.548Z,6.60
2023-02-16T22:50:26.619Z,6.80
2023-02-16T22:52:56.911Z,6.57
2023-02-16T22:55:26.490Z,6.57
2023-02-16T22:57:55.506Z,6.60
2023-02-16T23:00:26.044Z,5.73
2023-02-16T23:02:55.114Z,6.23
2023-02-16T23:05:25.090Z,6.40
2023-02-16T23:07:55.264Z,7.07
2023-02-16T23:10:24.449Z,6.30
2023-02-16T23:12:54.640Z,7.57
2023-02-16T23:15:26.076Z,6.57
2023-02-16T23:17:55.734Z,6.87
2023-02-16T23:20:25.280Z,6.77
2023-02-16T23:22:54.868Z,6.60
2023-02-16T23:25:37.092Z,6.93
2023-02-16T23:28:07.205Z,6.60
2023-02-16T23:30:38.918Z,7.23
2023-02-16T23:33:09.480Z,6.37
2023-02-16T23:35:40.913Z,6.27
2023-02-16T23:38:16.827Z,6.93
2023-02-16T23:40:46.150Z,7.10
2023-02-16T23:43:16.200Z,6.10
2023-02-16T23:45:47.550Z,6.80
2023-02-16T23:48:16.453Z,7.47
2023-02-16T23:50:46.543Z,7.27
2023-02-16T23:53:16.785Z,6.47
2023-02-16T23:55:45.441Z,6.33
2023-02-16T23:58:15.315Z,6.53
